createdAt,value
2019-01-31T00:02:27.138Z,7.51
2019-01-31T00:05:21.596Z,7.57
2019-01-31T00:08:45.594Z,7.63
2019-01-31T00:12:02.538Z,7.63
2019-01-31T00:14:53.506Z,7.59
2019-01-31T00:17:55.861Z,7.54
2019-01-31T00:20:50.748Z,7.54
2019-01-31T00:24:11.188Z,7.47
2019-01-31T00:27:18.804Z,7.44
2019-01-31T00:30:06.202Z,7.52
2019-01-31T00:33:03.592Z,7.54
2019-01-31T00:36:10.601Z,7.49
2019-01-31T00:39:25.262Z,7.57
2019-01-31T00:42:19.913Z,7.54
2019-01-31T00:45:12.470Z,7.59
2019-01-31T00:48:09.218Z,7.61
2019-01-31T00:51:01.645Z,7.62
2019-01-31T00:53:46.067Z,7.61
2019-01-31T00:56:43.461Z,7.67
2019-01-31T01:00:00.740Z,7.64
2019-01-31T01:03:18.784Z,7.51
2019-01-31T01:06:15.824Z,7.50
2019-01-31T01:09:39.934Z,7.49
2019-01-31T01:12:53.842Z,7.47
2019-01-31T01:15:54.775Z,7.47
2019-01-31T01:18:59.568Z,7.41
2019-01-31T01:21:57.334Z,7.36
2019-01-31T01:25:14.791Z,7.27
2019-01-31T01:28:33.615Z,7.22
2019-01-31T01:31:29.402Z,7.12
2019-01-31T01:34:24.532Z,6.95
2019-01-31T01:37:26.636Z,6.92
2019-01-31T01:40:43.787Z,6.83
2019-01-31T01:43:26.848Z,6.74
2019-01-31T01:46:40.229Z,6.60
2019-01-31T01:49:41.290Z,6.55
2019-01-31T01:52:27.006Z,6.35
2019-01-31T01:55:18.198Z,6.29
2019-01-31T01:58:25.952Z,6.20
2019-01-31T02:01:37.639Z,6.17
2019-01-31T02:04:13.764Z,6.15
2019-01-31T02:07:34.057Z,6.03
2019-01-31T02:10:56.482Z,6.03
2019-01-31T02:14:06.598Z,5.95
2019-01-31T02:17:02.964Z,5.77
2019-01-31T02:20:10.315Z,5.66
2019-01-31T02:23:12.144Z,5.58
2019-01-31T02:26:15.920Z,5.60
2019-01-31T02:29:30.676Z,5.60
2019-01-31T02:32:15.741Z,5.64
2019-01-31T02:35:23.076Z,5.61
2019-01-31T02:38:49.677Z,5.63
2019-01-31T02:41:51.047Z,5.51
2019-01-31T02:44:56.355Z,5.45
2019-01-31T02:48:08.705Z,5.40
2019-01-31T02:50:58.469Z,5.40
2019-01-31T02:54:23.531Z,5.41
2019-01-31T02:57:23.737Z,5.43
2019-01-31T03:00:25.023Z,5.42
2019-01-31T03:03:23.566Z,5.41
2019-01-31T03:06:16.254Z,5.37
2019-01-31T03:09:05.732Z,5.28
2019-01-31T03:11:57.926Z,5.23
2019-01-31T03:14:33.575Z,5.22
2019-01-31T03:17:45.270Z,5.23
2019-01-31T03:20:46.753Z,5.34
2019-01-31T03:23:49.328Z,5.40
2019-01-31T03:26:54.957Z,5.45
2019-01-31T03:30:02.755Z,5.51
2019-01-31T03:32:57.891Z,5.56
2019-01-31T03:36:07.496Z,5.57
2019-01-31T03:38:49.997Z,5.59
2019-01-31T03:42:07.534Z,5.62
2019-01-31T03:45:04.253Z,5.59
2019-01-31T03:48:18.399Z,5.57
2019-01-31T03:51:16.518Z,5.59
2019-01-31T03:54:30.960Z,5.63
2019-01-31T03:57:34.357Z,5.65
2019-01-31T04:00:24.644Z,5.70
2019-01-31T04:03:22.675Z,5.72
2019-01-31T04:06:23.971Z,5.75
2019-01-31T04:08:54.610Z,5.76
2019-01-31T04:11:25.081Z,5.71
2019-01-31T04:13:55.526Z,5.73
2019-01-31T04:16:25.996Z,5.63
2019-01-31T04:18:56.492Z,5.47
2019-01-31T04:21:26.947Z,5.38
2019-01-31T04:23:57.654Z,5.44
2019-01-31T04:26:29.130Z,5.44
2019-01-31T04:28:59.615Z,5.52
2019-01-31T04:31:30.101Z,5.52
2019-01-31T04:34:00.560Z,5.37
2019-01-31T04:36:31.026Z,5.33
2019-01-31T04:39:01.553Z,5.45
2019-01-31T04:41:33.120Z,5.47
2019-01-31T04:44:04.658Z,5.58
2019-01-31T04:46:35.093Z,5.68
2019-01-31T04:49:06.111Z,5.72
2019-01-31T04:51:36.559Z,5.81
2019-01-31T04:54:07.024Z,5.76
2019-01-31T04:56:37.513Z,5.81
2019-01-31T04:59:07.990Z,5.70
2019-01-31T05:01:38.463Z,5.66
2019-01-31T05:04:08.988Z,5.55
2019-01-31T05:06:39.511Z,5.53
2019-01-31T05:09:10.042Z,5.40
2019-01-31T05:11:42.196Z,5.36
2019-01-31T05:14:12.789Z,5.33
2019-01-31T05:16:43.553Z,5.30
2019-01-31T05:19:14.049Z,5.36
2019-01-31T05:21:44.769Z,5.41
2019-01-31T05:24:15.331Z,5.52
2019-01-31T05:26:45.800Z,5.58
2019-01-31T05:29:16.280Z,5.56
2019-01-31T05:31:46.725Z,5.56
2019-01-31T05:34:17.178Z,5.45
2019-01-31T05:36:47.631Z,5.62
2019-01-31T05:39:18.089Z,5.71
2019-01-31T05:41:48.539Z,5.79
2019-01-31T05:44:19.021Z,5.86
2019-01-31T05:46:49.393Z,5.77
2019-01-31T05:49:19.834Z,5.69
2019-01-31T05:51:50.318Z,5.51
2019-01-31T05:54:20.795Z,5.50
2019-01-31T05:56:51.236Z,5.52
2019-01-31T05:59:21.613Z,5.59
2019-01-31T06:01:52.055Z,5.58
2019-01-31T06:04:22.736Z,5.59
2019-01-31T06:06:53.206Z,5.62
2019-01-31T06:09:23.702Z,5.75
2019-01-31T06:11:54.456Z,5.81
2019-01-31T06:14:24.899Z,5.97
2019-01-31T06:16:55.353Z,6.15
2019-01-31T06:19:25.783Z,6.25
2019-01-31T06:21:56.273Z,6.33
2019-01-31T06:24:26.773Z,6.43
2019-01-31T06:26:57.243Z,6.52
2019-01-31T06:29:27.689Z,6.60
2019-01-31T06:31:58.154Z,6.65
2019-01-31T06:34:28.671Z,6.57
2019-01-31T06:36:59.137Z,6.54
2019-01-31T06:39:29.649Z,6.27
2019-01-31T06:42:00.166Z,6.20
2019-01-31T06:44:30.684Z,6.28
2019-01-31T06:47:01.185Z,6.25
2019-01-31T06:49:31.676Z,6.47
2019-01-31T06:52:02.138Z,6.61
2019-01-31T06:54:32.600Z,6.70
2019-01-31T06:57:03.140Z,6.70
2019-01-31T06:59:33.619Z,6.63
2019-01-31T07:02:04.188Z,6.54
2019-01-31T07:04:34.662Z,6.55
2019-01-31T07:07:05.157Z,6.76
2019-01-31T07:09:35.648Z,6.81
2019-01-31T07:12:06.320Z,6.96
2019-01-31T07:14:36.798Z,7.16
2019-01-31T07:17:07.281Z,7.32
2019-01-31T07:19:37.759Z,7.06
2019-01-31T07:22:08.278Z,7.16
2019-01-31T07:24:38.752Z,7.18
2019-01-31T07:27:09.252Z,7.34
2019-01-31T07:29:39.748Z,7.38
2019-01-31T07:32:10.301Z,7.47
2019-01-31T07:34:41.017Z,7.55
2019-01-31T07:37:11.474Z,7.69
2019-01-31T07:39:41.987Z,7.61
2019-01-31T07:42:12.484Z,7.65
2019-01-31T07:44:42.979Z,7.72
2019-01-31T07:47:14.083Z,7.87
2019-01-31T07:49:44.577Z,7.80
2019-01-31T07:52:15.055Z,7.84
2019-01-31T07:54:45.554Z,7.90
2019-01-31T07:57:16.654Z,8.10
2019-01-31T07:59:47.161Z,8.11
2019-01-31T08:02:18.262Z,8.11
2019-01-31T08:04:49.303Z,8.09
2019-01-31T08:07:20.392Z,8.08
2019-01-31T08:09:51.483Z,7.83
2019-01-31T08:12:21.941Z,7.92
2019-01-31T08:14:53.003Z,8.02
2019-01-31T08:17:24.074Z,8.09
2019-01-31T08:19:55.130Z,7.89
2019-01-31T08:22:26.196Z,7.76
2019-01-31T08:24:57.348Z,7.97
2019-01-31T08:27:28.456Z,8.08
2019-01-31T08:29:59.547Z,7.99
2019-01-31T08:32:30.013Z,7.99
2019-01-31T08:35:01.204Z,8.30
2019-01-31T08:37:32.297Z,8.36
2019-01-31T08:40:03.500Z,8.22
2019-01-31T08:42:34.002Z,8.07
2019-01-31T08:45:05.172Z,8.16
2019-01-31T08:47:36.223Z,8.11
2019-01-31T08:50:08.583Z,8.02
2019-01-31T08:52:41.653Z,8.24
2019-01-31T08:55:12.382Z,8.50
2019-01-31T08:57:43.449Z,8.36
2019-01-31T09:00:21.015Z,8.49
2019-01-31T09:02:52.052Z,8.25
2019-01-31T09:05:23.121Z,8.13
2019-01-31T09:07:54.172Z,8.25
2019-01-31T09:10:30.522Z,8.46
2019-01-31T09:13:04.555Z,8.64
2019-01-31T09:15:35.630Z,8.74
2019-01-31T09:18:07.342Z,8.59
2019-01-31T09:20:45.110Z,8.58
2019-01-31T09:23:24.093Z,8.70
2019-01-31T09:26:37.803Z,8.67
2019-01-31T09:29:26.874Z,8.68
2019-01-31T09:32:32.416Z,8.63
2019-01-31T09:35:41.688Z,8.71
2019-01-31T09:38:52.499Z,8.64
2019-01-31T09:41:42.147Z,8.53
2019-01-31T09:45:15.316Z,8.23
2019-01-31T09:48:37.434Z,8.14
2019-01-31T09:51:20.418Z,8.38
2019-01-31T09:54:22.370Z,8.45
2019-01-31T09:57:11.351Z,8.37
2019-01-31T10:00:33.092Z,8.54
2019-01-31T10:03:13.404Z,8.57
2019-01-31T10:06:12.681Z,8.67
2019-01-31T10:09:36.561Z,8.51
2019-01-31T10:12:57.547Z,8.78
2019-01-31T10:16:09.815Z,8.73
2019-01-31T10:19:36.994Z,8.66
2019-01-31T10:22:43.988Z,8.79
2019-01-31T10:25:49.434Z,8.84
2019-01-31T10:29:06.813Z,8.91
2019-01-31T10:32:31.220Z,8.86
2019-01-31T10:36:01.306Z,8.95
2019-01-31T10:38:49.027Z,9.01
2019-01-31T10:41:56.708Z,8.83
2019-01-31T10:45:03.726Z,8.82
2019-01-31T10:48:12.472Z,9.06
2019-01-31T10:51:32.280Z,9.21
2019-01-31T10:54:35.491Z,9.17
2019-01-31T10:57:38.521Z,9.19
2019-01-31T11:00:45.420Z,9.69
2019-01-31T11:03:58.672Z,9.78
2019-01-31T11:06:57.335Z,9.71
2019-01-31T11:10:14.168Z,9.74
2019-01-31T11:13:40.204Z,10.14
2019-01-31T11:17:07.320Z,10.14
2019-01-31T11:20:15.389Z,10.32
2019-01-31T11:23:22.968Z,10.49
2019-01-31T11:26:47.529Z,10.70
2019-01-31T11:29:43.403Z,10.63
2019-01-31T11:32:52.955Z,10.44
2019-01-31T11:36:15.596Z,10.33
2019-01-31T11:39:21.564Z,10.39
2019-01-31T11:42:31.827Z,10.25
2019-01-31T11:45:43.789Z,10.13
2019-01-31T11:48:48.229Z,10.03
2019-01-31T11:51:53.025Z,10.10
2019-01-31T11:54:55.155Z,10.23
2019-01-31T11:58:02.245Z,10.23
2019-01-31T12:00:33.947Z,10.11
2019-01-31T12:03:05.060Z,9.91
2019-01-31T12:05:36.723Z,9.87
2019-01-31T12:08:07.837Z,9.69
2019-01-31T12:10:38.901Z,9.77
2019-01-31T12:13:09.871Z,9.80
2019-01-31T12:15:40.954Z,9.76
2019-01-31T12:18:12.082Z,9.81
2019-01-31T12:20:43.155Z,9.58
2019-01-31T12:23:14.289Z,9.67
2019-01-31T12:25:45.313Z,9.46
2019-01-31T12:28:16.340Z,9.44
2019-01-31T12:30:47.381Z,9.65
2019-01-31T12:33:18.483Z,9.57
2019-01-31T12:35:49.518Z,9.45
2019-01-31T12:38:20.803Z,9.56
2019-01-31T12:40:51.843Z,9.75
2019-01-31T12:43:34.303Z,9.71
2019-01-31T12:45:55.652Z,9.72
2019-01-31T12:48:26.808Z,9.61
2019-01-31T12:50:57.840Z,9.60
2019-01-31T12:53:28.830Z,9.38
2019-01-31T12:55:59.933Z,9.43
2019-01-31T12:58:33.606Z,9.42
2019-01-31T13:01:05.161Z,9.37
2019-01-31T13:03:36.260Z,9.16
2019-01-31T13:06:07.304Z,9.20
2019-01-31T13:08:38.349Z,9.38
2019-01-31T13:11:09.393Z,9.28
2019-01-31T13:13:46.099Z,9.16
2019-01-31T13:16:13.199Z,9.21
2019-01-31T13:18:44.261Z,9.32
2019-01-31T13:21:15.308Z,9.20
2019-01-31T13:23:46.368Z,9.17
2019-01-31T13:26:17.336Z,9.22
2019-01-31T13:28:48.393Z,9.18
2019-01-31T13:31:19.450Z,9.16
2019-01-31T13:33:50.505Z,9.18
2019-01-31T13:36:22.836Z,9.23
2019-01-31T13:38:53.899Z,9.07
2019-01-31T13:41:24.972Z,9.00
2019-01-31T13:43:57.727Z,8.93
2019-01-31T13:46:28.795Z,8.93
2019-01-31T13:48:59.863Z,8.81
2019-01-31T13:51:30.927Z,8.77
2019-01-31T13:54:01.980Z,8.70
2019-01-31T13:56:44.919Z,8.58
2019-01-31T13:59:05.999Z,8.69
2019-01-31T14:01:37.052Z,8.67
2019-01-31T14:04:08.089Z,8.70
2019-01-31T14:06:39.137Z,8.64
2019-01-31T14:09:10.520Z,8.72
2019-01-31T14:11:41.573Z,8.74
2019-01-31T14:14:12.639Z,8.68
2019-01-31T14:16:47.799Z,8.77
2019-01-31T14:19:16.427Z,8.71
2019-01-31T14:21:47.628Z,8.85
2019-01-31T14:24:18.756Z,8.95
2019-01-31T14:26:49.803Z,8.84
2019-01-31T14:29:21.913Z,8.95
2019-01-31T14:31:52.962Z,8.91
2019-01-31T14:34:23.978Z,8.94
2019-01-31T14:36:55.023Z,8.94
2019-01-31T14:39:26.114Z,8.95
2019-01-31T14:41:57.156Z,8.94
2019-01-31T14:44:28.213Z,8.85
2019-01-31T14:46:59.280Z,8.74
2019-01-31T14:49:30.289Z,8.73
2019-01-31T14:52:01.329Z,8.70
2019-01-31T14:54:32.388Z,8.71
2019-01-31T14:57:04.449Z,8.66
2019-01-31T14:59:35.522Z,8.55
2019-01-31T15:02:06.673Z,8.55
2019-01-31T15:04:37.721Z,8.59
2019-01-31T15:07:08.786Z,8.57
2019-01-31T15:09:39.867Z,8.52
2019-01-31T15:12:10.907Z,8.53
2019-01-31T15:14:42.007Z,8.50
2019-01-31T15:17:13.086Z,8.54
2019-01-31T15:19:44.224Z,8.46
2019-01-31T15:22:15.217Z,8.42
2019-01-31T15:24:46.517Z,8.43
2019-01-31T15:27:17.634Z,8.45
2019-01-31T15:29:48.674Z,8.47
2019-01-31T15:32:20.073Z,8.47
2019-01-31T15:34:51.150Z,8.49
2019-01-31T15:37:22.222Z,8.43
2019-01-31T15:39:53.262Z,8.28
2019-01-31T15:42:24.356Z,8.29
2019-01-31T15:44:55.405Z,8.31
2019-01-31T15:47:26.454Z,8.28
2019-01-31T15:49:57.552Z,8.24
2019-01-31T15:52:28.641Z,8.16
2019-01-31T15:54:59.730Z,8.11
2019-01-31T15:57:30.895Z,8.09
2019-01-31T16:00:01.969Z,8.03
2019-01-31T16:02:33.070Z,8.07
2019-01-31T16:05:04.153Z,8.14
2019-01-31T16:07:35.247Z,8.18
2019-01-31T16:10:06.337Z,8.16
2019-01-31T16:12:37.399Z,8.15
2019-01-31T16:15:09.569Z,8.14
2019-01-31T16:17:40.673Z,8.10
2019-01-31T16:20:12.983Z,8.10
2019-01-31T16:22:44.107Z,8.11
2019-01-31T16:25:16.454Z,8.09
2019-01-31T16:27:47.505Z,8.04
2019-01-31T16:30:21.101Z,8.02
2019-01-31T16:32:52.203Z,8.03
2019-01-31T16:35:24.310Z,7.98
2019-01-31T16:37:55.519Z,8.01
2019-01-31T16:40:26.640Z,7.93
2019-01-31T16:42:57.700Z,7.89
2019-01-31T16:45:28.799Z,7.84
2019-01-31T16:47:59.880Z,7.79
2019-01-31T16:50:30.957Z,7.79
2019-01-31T16:53:02.070Z,7.81
2019-01-31T16:55:33.115Z,7.83
2019-01-31T16:58:04.306Z,7.81
2019-01-31T17:00:35.457Z,7.80
2019-01-31T17:03:07.318Z,7.85
2019-01-31T17:05:38.398Z,7.89
2019-01-31T17:08:10.474Z,7.91
2019-01-31T17:10:43.280Z,7.94
2019-01-31T17:13:14.379Z,7.94
2019-01-31T17:15:45.469Z,7.90
2019-01-31T17:18:16.585Z,7.91
2019-01-31T17:20:47.737Z,7.93
2019-01-31T17:23:18.884Z,7.97
2019-01-31T17:25:49.988Z,7.98
2019-01-31T17:28:21.072Z,7.98
2019-01-31T17:30:51.554Z,8.03
2019-01-31T17:33:22.783Z,8.05
2019-01-31T17:35:53.885Z,8.00
2019-01-31T17:38:25.997Z,7.96
2019-01-31T17:40:57.117Z,7.98
2019-01-31T17:43:29.728Z,7.99
2019-01-31T17:46:01.146Z,7.98
2019-01-31T17:48:35.316Z,7.98
2019-01-31T17:51:05.296Z,7.96
2019-01-31T17:53:36.433Z,7.94
2019-01-31T17:56:07.545Z,7.93
2019-01-31T17:58:38.113Z,7.88
2019-01-31T18:01:09.178Z,7.85
2019-01-31T18:03:40.315Z,7.78
2019-01-31T18:06:11.389Z,7.73
2019-01-31T18:08:42.506Z,7.71
2019-01-31T18:11:13.684Z,7.65
2019-01-31T18:13:44.900Z,7.64
2019-01-31T18:16:17.506Z,7.62
2019-01-31T18:18:49.091Z,7.63
2019-01-31T18:21:20.165Z,7.59
2019-01-31T18:23:51.298Z,7.57
2019-01-31T18:26:22.427Z,7.55
2019-01-31T18:28:52.956Z,7.55
2019-01-31T18:31:24.449Z,7.57
2019-01-31T18:33:57.085Z,7.50
2019-01-31T18:36:27.605Z,7.42
2019-01-31T18:38:58.733Z,7.35
2019-01-31T18:41:29.198Z,7.28
2019-01-31T18:43:59.728Z,7.25
2019-01-31T18:46:30.239Z,7.22
2019-01-31T18:49:00.828Z,7.14
2019-01-31T18:51:31.322Z,7.16
2019-01-31T18:54:01.821Z,7.19
2019-01-31T18:56:32.311Z,7.18
2019-01-31T18:59:03.399Z,7.15
2019-01-31T19:01:33.994Z,7.12
2019-01-31T19:04:05.068Z,7.08
2019-01-31T19:06:36.224Z,7.09
2019-01-31T19:09:06.731Z,7.11
2019-01-31T19:11:37.259Z,7.11
2019-01-31T19:14:07.754Z,7.11
2019-01-31T19:16:38.842Z,7.15
2019-01-31T19:19:09.928Z,7.12
2019-01-31T19:21:40.436Z,7.14
2019-01-31T19:24:10.920Z,7.13
2019-01-31T19:26:42.002Z,7.16
2019-01-31T19:29:12.780Z,7.18
2019-01-31T19:31:43.942Z,7.18
2019-01-31T19:34:15.235Z,7.22
2019-01-31T19:36:45.822Z,7.20
2019-01-31T19:39:18.920Z,7.19
2019-01-31T19:41:49.454Z,7.17
2019-01-31T19:44:19.927Z,7.10
2019-01-31T19:46:50.418Z,7.10
2019-01-31T19:49:21.012Z,7.09
2019-01-31T19:51:51.578Z,7.05
2019-01-31T19:54:24.160Z,7.01
2019-01-31T19:56:54.652Z,7.06
2019-01-31T19:59:25.951Z,7.06
2019-01-31T20:01:56.437Z,7.04
2019-01-31T20:04:27.098Z,7.04
2019-01-31T20:06:57.561Z,7.02
2019-01-31T20:09:29.228Z,6.99
2019-01-31T20:11:59.734Z,7.02
2019-01-31T20:14:30.214Z,7.00
2019-01-31T20:17:01.358Z,7.00
2019-01-31T20:19:32.886Z,7.01
2019-01-31T20:22:03.744Z,7.03
2019-01-31T20:24:34.208Z,7.02
2019-01-31T20:27:04.674Z,6.99
2019-01-31T20:29:35.153Z,7.03
2019-01-31T20:32:06.136Z,7.04
2019-01-31T20:34:37.984Z,7.08
2019-01-31T20:37:10.121Z,7.13
2019-01-31T20:39:40.641Z,7.16
2019-01-31T20:42:11.707Z,7.21
2019-01-31T20:44:42.779Z,7.23
2019-01-31T20:47:15.868Z,7.26
2019-01-31T20:49:46.599Z,7.31
2019-01-31T20:52:17.653Z,7.36
2019-01-31T20:54:48.112Z,7.36
2019-01-31T20:57:18.540Z,7.39
2019-01-31T20:59:49.114Z,7.33
2019-01-31T21:02:21.887Z,7.23
2019-01-31T21:04:52.459Z,7.13
2019-01-31T21:07:23.020Z,7.09
2019-01-31T21:09:53.543Z,6.96
2019-01-31T21:12:24.286Z,7.01
2019-01-31T21:14:54.738Z,7.03
2019-01-31T21:17:25.517Z,7.04
2019-01-31T21:19:55.971Z,7.06
2019-01-31T21:22:26.561Z,7.05
2019-01-31T21:24:56.996Z,7.12
2019-01-31T21:28:18.931Z,7.20
2019-01-31T21:30:45.205Z,7.15
2019-01-31T21:33:11.278Z,7.12
2019-01-31T21:35:37.551Z,7.10
2019-01-31T21:38:03.839Z,7.09
2019-01-31T21:40:33.872Z,7.06
2019-01-31T21:43:00.153Z,7.12
2019-01-31T21:45:26.326Z,7.11
2019-01-31T21:47:52.625Z,7.11
2019-01-31T21:50:21.812Z,7.14
2019-01-31T21:52:48.099Z,7.15
2019-01-31T21:55:14.593Z,7.13
2019-01-31T21:57:40.667Z,7.14
2019-01-31T22:00:32.955Z,7.04
2019-01-31T22:02:59.251Z,6.97
2019-01-31T22:05:25.519Z,6.91
2019-01-31T22:07:51.701Z,6.90
2019-01-31T22:10:18.728Z,6.92
2019-01-31T22:12:44.971Z,6.97
2019-01-31T22:15:20.351Z,6.98
2019-01-31T22:17:46.530Z,7.01
2019-01-31T22:20:12.778Z,7.03
2019-01-31T22:22:39.013Z,7.00
2019-01-31T22:25:08.598Z,6.95
2019-01-31T22:27:34.766Z,6.90
2019-01-31T22:30:01.271Z,6.79
2019-01-31T22:32:27.541Z,6.67
2019-01-31T22:34:53.828Z,6.58
2019-01-31T22:37:19.992Z,6.56
2019-01-31T22:39:46.175Z,6.62
2019-01-31T22:42:12.343Z,6.63
2019-01-31T22:44:38.608Z,6.66
2019-01-31T22:47:04.760Z,6.65
2019-01-31T22:49:31.035Z,6.51
2019-01-31T22:51:57.232Z,6.49
2019-01-31T22:54:23.479Z,6.40
2019-01-31T22:56:49.622Z,6.30
2019-01-31T22:59:15.718Z,6.23
2019-01-31T23:04:33.516Z,6.06
2019-01-31T23:06:59.566Z,5.94
2019-01-31T23:09:25.633Z,5.85
2019-01-31T23:11:51.797Z,5.78
2019-01-31T23:14:17.970Z,5.78
2019-01-31T23:16:44.219Z,5.81
2019-01-31T23:19:10.372Z,5.79
2019-01-31T23:21:36.444Z,5.79
2019-01-31T23:24:02.931Z,5.74
2019-01-31T23:26:28.980Z,5.72
2019-01-31T23:28:55.165Z,5.68
2019-01-31T23:31:21.310Z,5.55
2019-01-31T23:33:47.379Z,5.42
2019-01-31T23:36:13.559Z,5.30
2019-01-31T23:38:39.505Z,5.22
2019-01-31T23:41:05.565Z,5.18
2019-01-31T23:43:31.516Z,5.16
2019-01-31T23:45:57.684Z,5.15
2019-01-31T23:48:23.765Z,5.12
2019-01-31T23:50:49.814Z,5.12
2019-01-31T23:53:15.987Z,5.11
2019-01-31T23:55:42.292Z,5.16
2019-01-31T23:58:08.438Z,5.19
